createdAt,value
2019-05-30T00:00:16.570Z,99773.26
2019-05-30T00:02:34.986Z,99774.59
2019-05-30T00:05:02.702Z,99765.76
2019-05-30T00:10:01.166Z,99764.53
2019-05-30T00:12:27.801Z,99770.23
2019-05-30T00:14:54.530Z,99766.23
2019-05-30T00:17:21.214Z,99764.53
2019-05-30T00:19:47.812Z,99765.87
2019-05-30T00:22:14.418Z,99764.16
2019-05-30T00:24:41.123Z,99762.84
2019-05-30T00:27:07.720Z,99763.80
2019-05-30T00:29:34.330Z,99761.61
2019-05-30T00:32:01.592Z,99758.10
2019-05-30T00:34:28.328Z,99751.83
2019-05-30T00:36:58.187Z,99758.95
2019-05-30T00:39:24.847Z,99761.72
2019-05-30T00:41:52.375Z,99763.53
2019-05-30T00:44:19.016Z,99761.35
2019-05-30T00:46:45.603Z,99758.33
2019-05-30T00:49:12.252Z,99764.02
2019-05-30T00:51:38.871Z,99759.66
2019-05-30T00:54:06.870Z,99759.66
2019-05-30T00:56:33.670Z,99754.81
2019-05-30T00:59:00.660Z,99754.81
2019-05-30T01:01:27.442Z,99754.92
2019-05-30T01:03:54.028Z,99750.45
2019-05-30T01:06:20.669Z,99749.13
2019-05-30T01:08:47.302Z,99746.09
2019-05-30T01:11:20.124Z,99743.91
2019-05-30T01:13:46.751Z,99744.88
2019-05-30T01:16:13.407Z,99744.88
2019-05-30T01:18:39.996Z,99744.16
2019-05-30T01:21:07.435Z,99742.69
2019-05-30T01:23:34.537Z,99745.49
2019-05-30T01:26:01.406Z,99759.64
2019-05-30T01:28:28.008Z,99742.83
2019-05-30T01:31:01.538Z,99747.41
2019-05-30T01:33:22.975Z,99749.11
2019-05-30T01:35:49.564Z,99748.27
2019-05-30T01:38:16.183Z,99752.36
2019-05-30T01:40:42.804Z,99756.35
2019-05-30T01:43:09.515Z,99759.59
2019-05-30T01:45:36.127Z,99758.27
2019-05-30T01:48:02.959Z,99761.41
2019-05-30T01:50:30.037Z,99758.38
2019-05-30T01:52:56.625Z,99760.56
2019-05-30T01:55:23.272Z,99756.20
2019-05-30T01:57:49.874Z,99757.52
2019-05-30T02:00:21.339Z,99763.70
2019-05-30T02:02:44.903Z,99761.89
2019-05-30T02:05:11.498Z,99762.37
2019-05-30T02:07:38.143Z,99756.20
2019-05-30T02:10:05.304Z,99761.52
2019-05-30T02:12:32.009Z,99768.16
2019-05-30T02:14:59.396Z,99761.52
2019-05-30T02:17:26.153Z,99762.84
2019-05-30T02:19:52.745Z,99767.80
2019-05-30T02:22:19.366Z,99769.12
2019-05-30T02:24:45.951Z,99778.44
2019-05-30T02:27:12.579Z,99776.73
2019-05-30T02:29:39.167Z,99776.36
2019-05-30T02:32:07.044Z,99775.03
2019-05-30T02:34:33.889Z,99775.03
2019-05-30T02:37:01.142Z,99768.38
2019-05-30T02:39:28.894Z,99775.03
2019-05-30T02:41:55.548Z,99773.59
2019-05-30T02:44:22.142Z,99777.21
2019-05-30T02:46:55.166Z,99778.06
2019-05-30T02:49:21.759Z,99780.24
2019-05-30T02:51:48.393Z,99772.74
2019-05-30T02:54:15.170Z,99777.10
2019-05-30T02:56:41.805Z,99786.78
2019-05-30T02:59:09.334Z,99781.58
2019-05-30T03:01:36.771Z,99786.04
2019-05-30T03:04:04.040Z,99786.63
2019-05-30T03:06:31.711Z,99791.58
2019-05-30T03:08:58.299Z,99792.91
2019-05-30T03:11:24.991Z,99793.97
2019-05-30T03:13:51.564Z,99797.48
2019-05-30T03:16:18.156Z,99793.63
2019-05-30T03:18:44.831Z,99793.27
2019-05-30T03:21:13.430Z,99796.40
2019-05-30T03:23:39.785Z,99792.99
2019-05-30T03:26:09.182Z,99789.01
2019-05-30T03:28:34.764Z,99798.31
2019-05-30T03:31:04.417Z,99799.64
2019-05-30T03:33:39.512Z,99801.72
2019-05-30T03:35:58.137Z,99801.83
2019-05-30T03:38:24.763Z,99807.52
2019-05-30T03:40:51.426Z,99801.72
2019-05-30T03:43:18.037Z,99801.34
2019-05-30T03:45:44.716Z,99797.36
2019-05-30T03:48:12.334Z,99801.72
2019-05-30T03:50:39.781Z,99802.20
2019-05-30T03:53:07.435Z,99806.19
2019-05-30T03:55:34.730Z,99811.02
2019-05-30T03:58:01.385Z,99807.03
2019-05-30T04:00:28.083Z,99816.82
2019-05-30T04:02:58.417Z,99816.92
2019-05-30T04:05:23.238Z,99816.55
2019-05-30T04:07:49.855Z,99823.68
2019-05-30T04:10:16.461Z,99827.67
2019-05-30T04:12:43.092Z,99822.45
2019-05-30T04:15:10.576Z,99826.08
2019-05-30T04:17:38.148Z,99833.57
2019-05-30T04:20:04.761Z,99828.73
2019-05-30T04:22:31.562Z,99831.88
2019-05-30T04:24:58.171Z,99837.08
2019-05-30T04:27:24.761Z,99835.75
2019-05-30T04:29:51.382Z,99837.45
2019-05-30T04:32:18.720Z,99834.69
2019-05-30T04:34:54.624Z,99835.55
2019-05-30T04:37:21.297Z,99839.05
2019-05-30T04:39:47.937Z,99841.34
2019-05-30T04:42:16.122Z,99846.17
2019-05-30T04:44:42.929Z,99846.77
2019-05-30T04:47:09.992Z,99851.33
2019-05-30T04:52:14.244Z,99866.17
2019-05-30T04:54:37.573Z,99865.80
2019-05-30T04:57:04.223Z,99863.72
2019-05-30T04:59:30.827Z,99870.74
2019-05-30T05:01:57.630Z,99868.45
2019-05-30T05:04:24.229Z,99875.10
2019-05-30T05:06:53.604Z,99877.76
2019-05-30T05:09:20.406Z,99879.47
2019-05-30T05:14:20.586Z,99894.94
2019-05-30T05:16:47.313Z,99899.78
2019-05-30T05:19:14.882Z,99897.13
2019-05-30T05:21:41.769Z,99899.30
2019-05-30T05:24:08.371Z,99905.09
2019-05-30T05:26:40.706Z,99904.25
2019-05-30T05:29:07.328Z,99908.72
2019-05-30T05:31:33.927Z,99907.01
2019-05-30T05:34:01.845Z,99911.95
2019-05-30T05:36:28.437Z,99911.58
2019-05-30T05:38:55.073Z,99916.66
2019-05-30T05:41:22.291Z,99918.94
2019-05-30T05:43:49.072Z,99916.39
2019-05-30T05:46:16.434Z,99920.38
2019-05-30T05:48:43.213Z,99920.75
2019-05-30T05:51:09.802Z,99923.88
2019-05-30T05:53:36.436Z,99934.05
2019-05-30T05:56:03.066Z,99928.73
2019-05-30T05:58:29.668Z,99930.64
2019-05-30T06:00:56.280Z,99925.70
2019-05-30T06:03:24.147Z,99927.39
2019-05-30T06:05:53.369Z,99932.71
2019-05-30T06:08:19.574Z,99935.14
2019-05-30T06:10:46.276Z,99932.98
2019-05-30T06:13:12.903Z,99939.13
2019-05-30T06:15:39.486Z,99943.86
2019-05-30T06:18:12.088Z,99936.73
2019-05-30T06:20:38.825Z,99944.98
2019-05-30T06:23:05.530Z,99944.03
2019-05-30T06:25:33.055Z,99937.48
2019-05-30T06:27:59.796Z,99942.91
2019-05-30T06:30:26.479Z,99938.55
2019-05-30T06:32:53.112Z,99945.29
2019-05-30T06:35:21.398Z,99948.42
2019-05-30T06:37:48.292Z,99950.27
2019-05-30T06:40:14.877Z,99948.42
2019-05-30T06:42:41.473Z,99950.61
2019-05-30T06:45:08.104Z,99946.63
2019-05-30T06:47:35.724Z,99948.94
2019-05-30T06:50:02.302Z,99947.09
2019-05-30T06:52:29.164Z,99948.33
2019-05-30T06:54:55.888Z,99949.08
2019-05-30T06:57:23.118Z,99947.75
2019-05-30T06:59:49.858Z,99948.33
2019-05-30T07:02:16.695Z,99954.50
2019-05-30T07:04:51.639Z,99950.51
2019-05-30T07:07:11.970Z,99950.13
2019-05-30T07:09:38.801Z,99963.80
2019-05-30T07:12:07.263Z,99962.84
2019-05-30T07:14:33.932Z,99962.84
2019-05-30T07:17:00.539Z,99962.84
2019-05-30T07:19:27.390Z,99965.98
2019-05-30T07:21:54.264Z,99969.87
2019-05-30T07:24:20.902Z,99978.22
2019-05-30T07:26:47.513Z,99975.09
2019-05-30T07:29:14.134Z,99980.78
2019-05-30T07:31:40.832Z,99985.24
2019-05-30T07:34:07.444Z,99985.72
2019-05-30T07:36:34.435Z,99988.86
2019-05-30T07:39:01.128Z,99988.00
2019-05-30T07:41:28.777Z,99986.78
2019-05-30T07:43:58.276Z,99989.81
2019-05-30T07:46:24.864Z,99984.49
2019-05-30T07:48:51.500Z,99989.34
2019-05-30T07:51:19.417Z,99995.51
2019-05-30T07:53:47.778Z,99993.22
2019-05-30T07:56:14.480Z,100001.58
2019-05-30T07:58:41.181Z,99998.44
2019-05-30T08:01:07.783Z,100001.00
2019-05-30T08:03:34.735Z,100006.69
2019-05-30T08:06:01.505Z,100002.22
2019-05-30T08:08:28.181Z,100002.97
2019-05-30T08:11:08.291Z,100003.34
2019-05-30T08:13:23.393Z,100008.19
2019-05-30T08:15:50.025Z,100005.63
2019-05-30T08:18:16.644Z,100005.63
2019-05-30T08:20:43.297Z,100015.80
2019-05-30T08:23:10.159Z,100016.37
2019-05-30T08:25:36.975Z,100018.55
2019-05-30T08:28:03.629Z,100022.06
2019-05-30T08:30:30.393Z,100023.50
2019-05-30T08:32:57.308Z,100025.20
2019-05-30T08:35:39.145Z,100026.05
2019-05-30T08:37:52.233Z,100022.44
2019-05-30T08:40:18.894Z,100025.72
2019-05-30T08:42:45.493Z,100024.28
2019-05-30T08:45:12.092Z,100027.59
2019-05-30T08:47:38.723Z,100027.87
2019-05-30T08:50:05.395Z,100026.34
2019-05-30T08:52:32.385Z,100024.80
2019-05-30T08:54:59.090Z,100026.98
2019-05-30T08:57:25.709Z,100024.19
2019-05-30T08:59:52.328Z,100017.53
2019-05-30T09:02:18.933Z,100021.05
2019-05-30T09:04:46.011Z,100021.52
2019-05-30T09:07:12.775Z,100020.67
2019-05-30T09:09:40.187Z,100020.44
2019-05-30T09:12:06.975Z,100017.02
2019-05-30T09:14:33.633Z,100023.77
2019-05-30T09:17:00.237Z,100018.66
2019-05-30T09:19:26.854Z,100028.66
2019-05-30T09:21:53.489Z,100026.58
2019-05-30T09:24:20.119Z,100028.86
2019-05-30T09:26:49.047Z,100028.61
2019-05-30T09:29:15.082Z,100034.03
2019-05-30T09:31:42.809Z,100035.47
2019-05-30T09:34:12.050Z,100043.64
2019-05-30T09:36:39.451Z,100047.84
2019-05-30T09:39:06.265Z,100047.18
2019-05-30T09:41:32.893Z,100053.59
2019-05-30T09:43:59.497Z,100048.94
2019-05-30T09:46:26.131Z,100056.74
2019-05-30T09:48:52.766Z,100052.67
2019-05-30T09:51:19.352Z,100062.84
2019-05-30T09:53:46.090Z,100060.41
2019-05-30T09:56:12.792Z,100061.40
2019-05-30T09:58:39.404Z,100063.69
2019-05-30T10:01:06.006Z,100061.64
2019-05-30T10:03:32.728Z,100066.01
2019-05-30T10:05:59.377Z,100057.89
2019-05-30T10:08:25.982Z,100057.13
2019-05-30T10:10:53.522Z,100056.66
2019-05-30T10:13:20.317Z,100052.67
2019-05-30T10:15:47.085Z,100052.58
2019-05-30T10:18:14.012Z,100057.31
2019-05-30T10:20:41.974Z,100058.42
2019-05-30T10:23:08.731Z,100066.67
2019-05-30T10:25:35.326Z,100068.66
2019-05-30T10:28:01.927Z,100066.38
2019-05-30T10:30:28.544Z,100066.77
2019-05-30T10:32:55.963Z,100068.66
2019-05-30T10:35:22.753Z,100066.20
2019-05-30T10:37:50.765Z,100066.48
2019-05-30T10:40:17.697Z,100063.20
2019-05-30T10:42:44.329Z,100071.36
2019-05-30T10:45:10.957Z,100067.00
2019-05-30T10:47:37.584Z,100070.60
2019-05-30T10:50:04.170Z,100059.98
2019-05-30T10:52:30.819Z,100062.54
2019-05-30T10:54:57.455Z,100059.78
2019-05-30T10:57:24.170Z,100062.72
2019-05-30T10:59:50.944Z,100065.66
2019-05-30T11:02:17.677Z,100056.99
2019-05-30T11:04:44.270Z,100058.61
2019-05-30T11:07:12.020Z,100047.78
2019-05-30T11:09:39.022Z,100053.48
2019-05-30T11:12:05.618Z,100057.84
2019-05-30T11:14:32.242Z,100053.00
2019-05-30T11:16:58.827Z,100055.00
2019-05-30T11:19:25.472Z,100058.75
2019-05-30T11:21:52.799Z,100060.84
2019-05-30T11:24:20.568Z,100059.31
2019-05-30T11:26:50.420Z,100059.50
2019-05-30T11:29:15.507Z,100064.52
2019-05-30T11:31:42.132Z,100060.78
2019-05-30T11:34:08.737Z,100051.86
2019-05-30T11:36:35.378Z,100063.81
2019-05-30T11:39:02.016Z,100063.91
2019-05-30T11:41:28.673Z,100065.00
2019-05-30T11:43:55.639Z,100060.73
2019-05-30T11:46:22.339Z,100047.91
2019-05-30T11:48:49.615Z,100048.67
2019-05-30T11:51:16.352Z,100048.20
2019-05-30T11:53:42.949Z,100054.37
2019-05-30T11:56:09.592Z,100055.09
2019-05-30T11:58:36.182Z,100054.08
2019-05-30T12:01:02.861Z,100055.23
2019-05-30T12:03:29.813Z,100044.52
2019-05-30T12:05:56.626Z,100045.09
2019-05-30T12:08:23.237Z,100045.95
2019-05-30T12:10:51.087Z,100045.59
2019-05-30T12:13:17.826Z,100037.12
2019-05-30T12:15:44.467Z,100038.34
2019-05-30T12:18:11.065Z,100034.27
2019-05-30T12:20:37.705Z,100032.27
2019-05-30T12:23:04.324Z,100030.27
2019-05-30T12:25:30.928Z,100029.50
2019-05-30T12:27:58.163Z,100036.66
2019-05-30T12:30:24.907Z,100035.52
2019-05-30T12:32:52.440Z,100037.81
2019-05-30T12:35:19.338Z,100036.16
2019-05-30T12:37:54.967Z,100032.24
2019-05-30T12:40:14.414Z,100040.30
2019-05-30T12:42:41.005Z,100037.67
2019-05-30T12:45:07.629Z,100040.98
2019-05-30T12:47:34.249Z,100045.35
2019-05-30T12:50:01.425Z,100043.34
2019-05-30T12:52:28.275Z,100052.80
2019-05-30T12:54:54.927Z,100045.47
2019-05-30T12:57:21.623Z,100051.61
2019-05-30T12:59:48.220Z,100048.03
2019-05-30T13:02:14.872Z,100045.53
2019-05-30T13:04:41.647Z,100050.75
2019-05-30T13:07:08.245Z,100054.27
2019-05-30T13:09:34.887Z,100063.78
2019-05-30T13:12:02.595Z,100059.72
2019-05-30T13:14:29.320Z,100057.61
2019-05-30T13:16:55.974Z,100052.80
2019-05-30T13:19:22.588Z,100049.23
2019-05-30T13:21:49.191Z,100048.97
2019-05-30T13:24:15.881Z,100049.44
2019-05-30T13:26:42.726Z,100054.86
2019-05-30T13:29:09.342Z,100052.30
2019-05-30T13:31:35.932Z,100047.08
2019-05-30T13:34:02.936Z,100044.14
2019-05-30T13:36:29.756Z,100049.32
2019-05-30T13:38:57.107Z,100046.11
2019-05-30T13:41:23.884Z,100044.45
2019-05-30T13:43:50.512Z,100052.89
2019-05-30T13:46:17.115Z,100045.91
2019-05-30T13:48:43.752Z,100045.45
2019-05-30T13:51:10.406Z,100048.98
2019-05-30T13:53:37.009Z,100048.07
2019-05-30T13:56:03.626Z,100043.05
2019-05-30T13:58:30.264Z,100048.75
2019-05-30T14:00:56.881Z,100045.94
2019-05-30T14:03:23.493Z,100046.50
2019-05-30T14:05:50.137Z,100049.92
2019-05-30T14:08:16.921Z,100047.45
2019-05-30T14:10:43.549Z,100044.36
2019-05-30T14:13:11.263Z,100046.73
2019-05-30T14:15:38.078Z,100045.02
2019-05-30T14:18:04.998Z,100035.92
2019-05-30T14:20:31.674Z,100043.60
2019-05-30T14:22:58.351Z,100046.95
2019-05-30T14:25:24.972Z,100044.86
2019-05-30T14:27:51.561Z,100046.76
2019-05-30T14:30:18.193Z,100048.56
2019-05-30T14:32:44.903Z,100047.33
2019-05-30T14:35:13.672Z,100045.42
2019-05-30T14:37:40.341Z,100047.92
2019-05-30T14:40:06.998Z,100044.31
2019-05-30T14:42:33.612Z,100053.97
2019-05-30T14:45:00.198Z,100050.39
2019-05-30T14:47:26.870Z,100049.77
2019-05-30T14:49:53.471Z,100043.42
2019-05-30T14:52:20.065Z,100045.44
2019-05-30T14:54:46.688Z,100046.17
2019-05-30T14:57:13.363Z,100043.41
2019-05-30T14:59:39.977Z,100045.52
2019-05-30T15:02:07.114Z,100041.42
2019-05-30T15:04:33.907Z,100040.75
2019-05-30T15:07:00.695Z,100038.36
2019-05-30T15:09:27.467Z,100033.75
2019-05-30T15:11:54.103Z,100036.40
2019-05-30T15:14:20.740Z,100043.11
2019-05-30T15:16:47.365Z,100036.10
2019-05-30T15:19:14.334Z,100033.07
2019-05-30T15:21:41.073Z,100034.40
2019-05-30T15:24:07.803Z,100031.75
2019-05-30T15:26:34.531Z,100037.05
2019-05-30T15:29:01.127Z,100038.84
2019-05-30T15:31:27.997Z,100038.25
2019-05-30T15:33:54.609Z,100038.91
2019-05-30T15:36:21.273Z,100037.41
2019-05-30T15:38:47.886Z,100033.91
2019-05-30T15:41:15.231Z,100034.45
2019-05-30T15:43:41.921Z,100032.28
2019-05-30T15:46:09.733Z,100031.90
2019-05-30T15:48:36.535Z,100032.28
2019-05-30T15:51:03.154Z,100036.08
2019-05-30T15:53:29.791Z,100028.98
2019-05-30T15:55:56.405Z,100026.80
2019-05-30T15:58:23.087Z,100023.21
2019-05-30T16:00:49.692Z,100027.57
2019-05-30T16:03:16.511Z,100024.33
2019-05-30T16:05:43.180Z,100023.00
2019-05-30T16:08:10.667Z,100024.91
2019-05-30T16:10:37.300Z,100026.13
2019-05-30T16:13:03.893Z,100019.30
2019-05-30T16:15:30.557Z,100018.53
2019-05-30T16:17:57.164Z,100019.38
2019-05-30T16:20:23.808Z,100018.23
2019-05-30T16:22:50.490Z,100011.87
2019-05-30T16:25:17.723Z,100016.70
2019-05-30T16:27:44.640Z,100019.52
2019-05-30T16:30:25.157Z,100019.52
2019-05-30T16:32:48.405Z,100026.44
2019-05-30T16:35:15.984Z,100027.67
2019-05-30T16:37:42.741Z,100024.09
2019-05-30T16:40:09.484Z,100031.48
2019-05-30T16:42:36.145Z,100032.25
2019-05-30T16:45:02.986Z,100031.13
2019-05-30T16:47:29.978Z,100034.90
2019-05-30T16:49:56.626Z,100035.75
2019-05-30T16:52:23.250Z,100033.87
2019-05-30T16:54:49.927Z,100033.11
2019-05-30T16:57:18.545Z,100037.76
2019-05-30T16:59:45.335Z,100035.19
2019-05-30T17:02:11.991Z,100036.86
2019-05-30T17:04:40.885Z,100035.89
2019-05-30T17:07:07.195Z,100031.44
2019-05-30T17:09:33.870Z,100040.58
2019-05-30T17:12:00.477Z,100041.81
2019-05-30T17:14:27.099Z,100040.74
2019-05-30T17:16:53.869Z,100037.02
2019-05-30T17:19:20.493Z,100038.98
2019-05-30T17:21:47.083Z,100040.98
2019-05-30T17:24:13.700Z,100041.15
2019-05-30T17:26:40.336Z,100045.29
2019-05-30T17:29:06.959Z,100041.45
2019-05-30T17:31:33.541Z,100043.80
2019-05-30T17:34:00.216Z,100046.53
2019-05-30T17:36:26.937Z,100044.82
2019-05-30T17:38:53.580Z,100048.98
2019-05-30T17:41:20.566Z,100047.66
2019-05-30T17:43:47.258Z,100038.18
2019-05-30T17:46:13.854Z,100045.34
2019-05-30T17:48:40.491Z,100052.44
2019-05-30T17:51:07.087Z,100049.09
2019-05-30T17:53:33.744Z,100061.20
2019-05-30T17:56:00.338Z,100064.41
2019-05-30T17:58:28.025Z,100063.24
2019-05-30T18:00:57.093Z,100067.98
2019-05-30T18:03:24.334Z,100071.19
2019-05-30T18:05:51.091Z,100071.19
2019-05-30T18:08:17.698Z,100069.64
2019-05-30T18:10:53.405Z,100071.98
2019-05-30T18:13:12.644Z,100077.08
2019-05-30T18:15:39.247Z,100074.51
2019-05-30T18:18:05.879Z,100080.81
2019-05-30T18:20:45.587Z,100080.51
2019-05-30T18:23:00.833Z,100082.77
2019-05-30T18:25:27.698Z,100078.80
2019-05-30T18:27:54.441Z,100082.30
2019-05-30T18:30:21.698Z,100088.45
2019-05-30T18:32:48.467Z,100088.45
2019-05-30T18:35:15.069Z,100091.56
2019-05-30T18:37:41.678Z,100091.72
2019-05-30T18:40:08.293Z,100091.80
2019-05-30T18:42:34.924Z,100099.34
2019-05-30T18:45:01.545Z,100099.16
2019-05-30T18:47:29.103Z,100098.77
2019-05-30T18:49:55.959Z,100102.89
2019-05-30T18:52:22.597Z,100103.05
2019-05-30T18:54:49.193Z,100105.69
2019-05-30T18:57:15.839Z,100113.55
2019-05-30T18:59:42.426Z,100118.53
2019-05-30T19:02:09.049Z,100111.52
2019-05-30T19:04:35.914Z,100119.07
2019-05-30T19:07:02.665Z,100116.04
2019-05-30T19:09:29.453Z,100130.98
2019-05-30T19:11:56.111Z,100126.23
2019-05-30T19:14:22.713Z,100130.59
2019-05-30T19:16:49.359Z,100136.27
2019-05-30T19:19:15.992Z,100137.59
2019-05-30T19:21:42.625Z,100135.33
2019-05-30T19:24:09.227Z,100134.09
2019-05-30T19:26:36.726Z,100140.70
2019-05-30T19:29:03.595Z,100139.45
2019-05-30T19:31:32.713Z,100143.81
2019-05-30T19:33:59.397Z,100148.17
2019-05-30T19:36:26.841Z,100141.02
2019-05-30T19:38:53.530Z,100140.08
2019-05-30T19:41:20.125Z,100139.61
2019-05-30T19:43:47.640Z,100138.68
2019-05-30T19:46:14.292Z,100142.64
2019-05-30T19:48:40.900Z,100136.89
2019-05-30T19:51:07.805Z,100143.50
2019-05-30T19:53:34.949Z,100143.11
2019-05-30T19:56:01.726Z,100148.48
2019-05-30T19:58:29.534Z,100150.73
2019-05-30T20:00:58.897Z,100147.23
2019-05-30T20:03:36.414Z,100145.45
2019-05-30T20:05:52.955Z,100141.41
2019-05-30T20:08:19.587Z,100143.58
2019-05-30T20:10:46.181Z,100143.04
2019-05-30T20:13:12.819Z,100146.15
2019-05-30T20:15:39.615Z,100148.87
2019-05-30T20:18:06.396Z,100143.50
2019-05-30T20:20:49.365Z,100144.28
2019-05-30T20:23:01.359Z,100147.86
2019-05-30T20:25:28.014Z,100156.73
2019-05-30T20:27:54.610Z,100147.94
2019-05-30T20:30:21.312Z,100148.80
2019-05-30T20:32:47.970Z,100154.47
2019-05-30T20:35:15.681Z,100147.86
2019-05-30T20:37:42.965Z,100153.93
2019-05-30T20:40:09.698Z,100149.42
2019-05-30T20:42:36.793Z,100153.77
2019-05-30T20:45:05.715Z,100150.55
2019-05-30T20:47:35.354Z,100156.16
2019-05-30T20:50:00.235Z,100158.64
2019-05-30T20:52:26.897Z,100158.56
2019-05-30T20:54:53.515Z,100157.63
2019-05-30T20:57:20.111Z,100156.70
2019-05-30T20:59:47.095Z,100153.13
2019-05-30T21:02:13.948Z,100162.22
2019-05-30T21:04:40.945Z,100161.75
2019-05-30T21:07:07.758Z,100167.33
2019-05-30T21:09:35.852Z,100170.59
2019-05-30T21:12:02.665Z,100164.59
2019-05-30T21:14:29.258Z,100166.50
2019-05-30T21:16:55.841Z,100158.80
2019-05-30T21:19:22.468Z,100155.59
2019-05-30T21:21:49.061Z,100154.82
2019-05-30T21:24:15.682Z,100151.48
2019-05-30T21:26:42.794Z,100150.70
2019-05-30T21:29:09.615Z,100161.88
2019-05-30T21:31:37.266Z,100161.48
2019-05-30T21:34:04.283Z,100164.98
2019-05-30T21:36:30.990Z,100157.32
2019-05-30T21:38:57.663Z,100157.55
2019-05-30T21:41:24.291Z,100157.86
2019-05-30T21:43:50.903Z,100160.34
2019-05-30T21:46:17.496Z,100160.19
2019-05-30T21:48:44.934Z,100155.67
2019-05-30T21:51:11.738Z,100159.45
2019-05-30T21:53:39.348Z,100157.73
2019-05-30T21:56:06.080Z,100161.31
2019-05-30T21:58:32.670Z,100161.89
2019-05-30T22:00:59.270Z,100162.83
2019-05-30T22:03:25.901Z,100160.34
2019-05-30T22:05:52.503Z,100157.31
2019-05-30T22:08:19.105Z,100155.29
2019-05-30T22:10:45.718Z,100153.46
2019-05-30T22:13:12.332Z,100156.81
2019-05-30T22:15:38.935Z,100157.91
2019-05-30T22:18:05.631Z,100158.84
2019-05-30T22:20:32.227Z,100159.78
2019-05-30T22:22:58.877Z,100154.48
2019-05-30T22:25:25.469Z,100158.06
2019-05-30T22:27:52.543Z,100154.56
2019-05-30T22:30:19.311Z,100148.02
2019-05-30T22:32:46.583Z,100147.09
2019-05-30T22:35:13.342Z,100150.13
2019-05-30T22:37:39.962Z,100149.11
2019-05-30T22:40:06.628Z,100148.64
2019-05-30T22:42:33.234Z,100143.27
2019-05-30T22:44:59.818Z,100146.23
2019-05-30T22:47:26.449Z,100139.45
2019-05-30T22:49:53.093Z,100148.55
2019-05-30T22:52:19.736Z,100143.07
2019-05-30T22:54:47.095Z,100142.60
2019-05-30T22:57:13.847Z,100142.44
2019-05-30T22:59:40.444Z,100141.50
2019-05-30T23:02:07.069Z,100140.02
2019-05-30T23:04:33.741Z,100133.70
2019-05-30T23:07:00.423Z,100129.73
2019-05-30T23:09:27.067Z,100130.59
2019-05-30T23:11:53.929Z,100136.83
2019-05-30T23:14:20.697Z,100133.79
2019-05-30T23:16:48.199Z,100132.16
2019-05-30T23:19:14.956Z,100136.21
2019-05-30T23:21:41.591Z,100123.22
2019-05-30T23:24:08.240Z,100122.25
2019-05-30T23:26:34.861Z,100129.57
2019-05-30T23:29:01.460Z,100117.52
2019-05-30T23:31:28.168Z,100123.47
2019-05-30T23:33:54.802Z,100123.23
2019-05-30T23:36:21.435Z,100111.48
2019-05-30T23:38:48.665Z,100118.09
2019-05-30T23:41:15.462Z,100108.37
2019-05-30T23:43:55.375Z,100105.26
2019-05-30T23:46:10.468Z,100106.97
2019-05-30T23:48:37.068Z,100106.03
2019-05-30T23:51:03.675Z,100112.18
2019-05-30T23:53:30.307Z,100116.62
2019-05-30T23:55:56.908Z,100116.46
2019-05-30T23:58:23.761Z,100116.84
